Airfield :
LOGIN :

Register | Disclaimer

   EN    FR    IT 

 










Legend :    VFR   Marginal VFR   IFR   Intensive IFR   Very Intensive IFR
Visi :
Ceiling :
>= 8 km
>= 3000ft
5 to 8 km
1000 to 3000 ft
1500m to 5 km
500 to 1000 ft
800 to 1500m
200 to 500 ft
< 800m
< 200 ft
Symbols :   Thunderstorms  Fog  Heavy snow  Heavy precipitations  Wind > 20 kt
SIGMETs :     Misc.  Thunderstorms  Icing  Turbulence  Mountain Waves  Volcanic Ashes







- Airport Elevation : 876 ft
- IATA code : MBX


LJMB - Maribor

CURRENT METAR :
  • 180700Z VRB02KT 9999 FEW003 SCT230 11/10 Q1018

EXPIRED METARs :
  • 180630Z 32003KT 280V350 0800 R32/0700N FG FEW003 SCT200 09/08 Q1018
  • 180600Z 01002KT 0600 R32/0300N FG BKN003 08/07 Q1018
  • 180530Z 33003KT 3000 BR SCT002 BKN230 07/07 Q1018
  • 180500Z 32003KT 3000 BR SCT002 BKN230 07/07 Q1018
  • 180430Z 00000KT 4000 BR SCT002 BKN230 08/07 Q1018

TAF AMD TAF LJMB
Valid from the 18 at 06:00 until the 19 at 06:00 UTC


180621Z 1806/1906 VRB02KT 5000 BR FEW001
PROB40
TEMPO 1806/1807 0600 FG BKN003
BECMG 1806/1807 7000 NSW
BECMG 1808/1810 22008KT 9999
TEMPO 1811/1819 22012KT
BECMG 1818/1821 VRB02KT
No reported NOTAMs for that airfield.



MET'MAP, your aeronautical weather chart ! - Copyright ORBIFLY December 2007 - Disclaimer

ORBIFLY MET'MAP TEAM :

Programming & Development : Alexandra Zaïnal
Concept & Development : Baudouin d'Aumeries
Co-Development & Prog : Marc-Olivier Méhu
Technical & hardware support : Manuel Goepfert

Contact : metmap@orbifly.com




SOURCES & CREDITS :

   NOAA